sensor_id;sensor_type;location;lat;lon;timestamp;P1;durP1;ratioP1;P2;durP2;ratioP2
14734;SDS011;7458;49.002;8.472;2024-02-14T00:01:44;9.57;;;6.50;;
14734;SDS011;7458;49.002;8.472;2024-02-14T00:04:10;7.60;;;5.05;;
14734;SDS011;7458;49.002;8.472;2024-02-14T00:06:38;10.73;;;4.75;;
14734;SDS011;7458;49.002;8.472;2024-02-14T00:09:04;7.30;;;4.82;;
14734;SDS011;7458;49.002;8.472;2024-02-14T00:11:31;6.03;;;4.95;;
14734;SDS011;7458;49.002;8.472;2024-02-14T00:13:57;5.47;;;4.28;;
14734;SDS011;7458;49.002;8.472;2024-02-14T00:16:25;7.03;;;5.32;;
14734;SDS011;7458;49.002;8.472;2024-02-14T00:18:55;8.40;;;6.30;;
14734;SDS011;7458;49.002;8.472;2024-02-14T00:21:22;7.90;;;4.55;;
14734;SDS011;7458;49.002;8.472;2024-02-14T00:23:49;6.00;;;4.43;;
14734;SDS011;7458;49.002;8.472;2024-02-14T00:26:15;6.53;;;4.32;;
14734;SDS011;7458;49.002;8.472;2024-02-14T00:28:41;8.05;;;6.88;;
14734;SDS011;7458;49.002;8.472;2024-02-14T00:31:08;6.25;;;5.15;;
14734;SDS011;7458;49.002;8.472;2024-02-14T00:33:39;7.20;;;5.90;;
14734;SDS011;7458;49.002;8.472;2024-02-14T00:36:06;9.90;;;6.90;;
14734;SDS011;7458;49.002;8.472;2024-02-14T00:38:32;7.53;;;5.53;;
14734;SDS011;7458;49.002;8.472;2024-02-14T00:40:58;5.60;;;4.88;;
14734;SDS011;7458;49.002;8.472;2024-02-14T00:43:25;6.35;;;5.65;;
14734;SDS011;7458;49.002;8.472;2024-02-14T00:45:51;6.70;;;4.22;;
14734;SDS011;7458;49.002;8.472;2024-02-14T00:48:16;8.25;;;4.25;;
14734;SDS011;7458;49.002;8.472;2024-02-14T00:50:42;6.35;;;4.22;;
14734;SDS011;7458;49.002;8.472;2024-02-14T00:53:09;5.55;;;3.80;;
14734;SDS011;7458;49.002;8.472;2024-02-14T00:55:36;7.25;;;5.25;;
14734;SDS011;7458;49.002;8.472;2024-02-14T00:58:02;5.38;;;4.00;;
14734;SDS011;7458;49.002;8.472;2024-02-14T01:00:28;8.77;;;5.65;;
14734;SDS011;7458;49.002;8.472;2024-02-14T01:02:54;7.03;;;4.32;;
14734;SDS011;7458;49.002;8.472;2024-02-14T01:05:22;5.97;;;4.35;;
14734;SDS011;7458;49.002;8.472;2024-02-14T01:07:49;11.88;;;5.65;;
14734;SDS011;7458;49.002;8.472;2024-02-14T01:10:16;6.65;;;4.72;;
14734;SDS011;7458;49.002;8.472;2024-02-14T01:12:43;10.02;;;4.47;;
14734;SDS011;7458;49.002;8.472;2024-02-14T01:15:09;6.53;;;4.25;;
14734;SDS011;7458;49.002;8.472;2024-02-14T01:17:36;6.40;;;5.03;;
14734;SDS011;7458;49.002;8.472;2024-02-14T01:20:03;13.25;;;5.80;;
14734;SDS011;7458;49.002;8.472;2024-02-14T01:22:32;9.00;;;5.13;;
14734;SDS011;7458;49.002;8.472;2024-02-14T01:24:59;6.05;;;4.00;;
14734;SDS011;7458;49.002;8.472;2024-02-14T01:27:25;7.72;;;4.75;;
14734;SDS011;7458;49.002;8.472;2024-02-14T01:29:53;9.50;;;4.95;;
14734;SDS011;7458;49.002;8.472;2024-02-14T01:32:20;5.55;;;4.30;;
14734;SDS011;7458;49.002;8.472;2024-02-14T01:34:46;6.72;;;4.50;;
14734;SDS011;7458;49.002;8.472;2024-02-14T01:37:12;7.65;;;4.30;;
14734;SDS011;7458;49.002;8.472;2024-02-14T01:39:38;6.55;;;4.60;;
14734;SDS011;7458;49.002;8.472;2024-02-14T01:42:04;8.82;;;4.55;;
14734;SDS011;7458;49.002;8.472;2024-02-14T01:44:32;8.10;;;4.95;;
14734;SDS011;7458;49.002;8.472;2024-02-14T01:46:59;6.35;;;4.45;;
14734;SDS011;7458;49.002;8.472;2024-02-14T01:49:26;11.38;;;5.53;;
14734;SDS011;7458;49.002;8.472;2024-02-14T01:51:53;8.57;;;5.45;;
14734;SDS011;7458;49.002;8.472;2024-02-14T01:54:27;5.65;;;4.57;;
14734;SDS011;7458;49.002;8.472;2024-02-14T01:56:54;5.43;;;4.47;;
14734;SDS011;7458;49.002;8.472;2024-02-14T01:59:23;6.95;;;4.28;;
14734;SDS011;7458;49.002;8.472;2024-02-14T02:01:51;7.55;;;5.28;;
14734;SDS011;7458;49.002;8.472;2024-02-14T02:04:17;6.80;;;4.22;;
14734;SDS011;7458;49.002;8.472;2024-02-14T02:06:44;6.15;;;5.43;;
14734;SDS011;7458;49.002;8.472;2024-02-14T02:09:10;11.40;;;5.65;;
14734;SDS011;7458;49.002;8.472;2024-02-14T02:11:44;6.78;;;4.47;;
14734;SDS011;7458;49.002;8.472;2024-02-14T02:14:13;12.15;;;6.25;;
14734;SDS011;7458;49.002;8.472;2024-02-14T02:16:39;9.63;;;5.30;;
14734;SDS011;7458;49.002;8.472;2024-02-14T02:19:06;12.27;;;5.45;;
14734;SDS011;7458;49.002;8.472;2024-02-14T02:21:34;7.60;;;4.90;;
14734;SDS011;7458;49.002;8.472;2024-02-14T02:24:01;4.50;;;3.85;;
14734;SDS011;7458;49.002;8.472;2024-02-14T02:26:27;10.23;;;5.10;;
14734;SDS011;7458;49.002;8.472;2024-02-14T02:28:53;5.90;;;3.80;;
14734;SDS011;7458;49.002;8.472;2024-02-14T02:31:20;7.25;;;5.68;;
14734;SDS011;7458;49.002;8.472;2024-02-14T02:33:46;6.55;;;4.05;;
14734;SDS011;7458;49.002;8.472;2024-02-14T02:36:12;7.53;;;6.75;;
14734;SDS011;7458;49.002;8.472;2024-02-14T02:38:41;6.65;;;5.95;;
14734;SDS011;7458;49.002;8.472;2024-02-14T02:41:07;10.10;;;5.72;;
14734;SDS011;7458;49.002;8.472;2024-02-14T02:43:34;9.38;;;4.82;;
14734;SDS011;7458;49.002;8.472;2024-02-14T02:46:00;12.02;;;4.97;;
14734;SDS011;7458;49.002;8.472;2024-02-14T02:48:26;6.72;;;5.63;;
14734;SDS011;7458;49.002;8.472;2024-02-14T02:50:52;4.60;;;4.05;;
14734;SDS011;7458;49.002;8.472;2024-02-14T02:53:19;5.75;;;4.65;;
14734;SDS011;7458;49.002;8.472;2024-02-14T02:55:46;8.48;;;5.43;;
14734;SDS011;7458;49.002;8.472;2024-02-14T02:58:12;7.32;;;5.78;;
14734;SDS011;7458;49.002;8.472;2024-02-14T03:00:39;6.30;;;4.32;;
14734;SDS011;7458;49.002;8.472;2024-02-14T03:03:07;10.60;;;4.60;;
14734;SDS011;7458;49.002;8.472;2024-02-14T03:05:33;4.95;;;3.53;;
14734;SDS011;7458;49.002;8.472;2024-02-14T03:08:00;8.48;;;5.47;;
14734;SDS011;7458;49.002;8.472;2024-02-14T03:10:26;6.30;;;4.97;;
14734;SDS011;7458;49.002;8.472;2024-02-14T03:12:54;7.55;;;4.55;;
14734;SDS011;7458;49.002;8.472;2024-02-14T03:15:20;7.30;;;4.85;;
14734;SDS011;7458;49.002;8.472;2024-02-14T03:17:46;6.50;;;4.18;;
14734;SDS011;7458;49.002;8.472;2024-02-14T03:20:12;11.02;;;4.57;;
14734;SDS011;7458;49.002;8.472;2024-02-14T03:22:39;6.40;;;5.05;;
14734;SDS011;7458;49.002;8.472;2024-02-14T03:25:16;7.55;;;3.30;;
14734;SDS011;7458;49.002;8.472;2024-02-14T03:27:43;8.18;;;5.75;;
14734;SDS011;7458;49.002;8.472;2024-02-14T03:30:16;9.05;;;4.97;;
14734;SDS011;7458;49.002;8.472;2024-02-14T03:32:42;21.98;;;4.60;;
14734;SDS011;7458;49.002;8.472;2024-02-14T03:35:09;6.05;;;3.97;;
14734;SDS011;7458;49.002;8.472;2024-02-14T03:37:36;4.43;;;4.00;;
14734;SDS011;7458;49.002;8.472;2024-02-14T03:40:04;8.38;;;3.50;;
14734;SDS011;7458;49.002;8.472;2024-02-14T03:42:31;5.03;;;4.10;;
14734;SDS011;7458;49.002;8.472;2024-02-14T03:44:59;5.88;;;4.68;;
14734;SDS011;7458;49.002;8.472;2024-02-14T03:47:31;5.85;;;4.15;;
14734;SDS011;7458;49.002;8.472;2024-02-14T03:49:57;4.63;;;4.18;;
14734;SDS011;7458;49.002;8.472;2024-02-14T03:52:24;4.63;;;3.38;;
14734;SDS011;7458;49.002;8.472;2024-02-14T03:54:51;5.53;;;4.35;;
14734;SDS011;7458;49.002;8.472;2024-02-14T03:57:17;7.95;;;3.95;;
14734;SDS011;7458;49.002;8.472;2024-02-14T03:59:44;8.68;;;3.55;;
14734;SDS011;7458;49.002;8.472;2024-02-14T04:02:11;3.70;;;2.50;;
14734;SDS011;7458;49.002;8.472;2024-02-14T04:04:38;5.65;;;3.63;;
14734;SDS011;7458;49.002;8.472;2024-02-14T04:07:08;4.97;;;3.60;;
14734;SDS011;7458;49.002;8.472;2024-02-14T04:09:34;4.10;;;3.30;;
14734;SDS011;7458;49.002;8.472;2024-02-14T04:12:00;10.80;;;4.50;;
14734;SDS011;7458;49.002;8.472;2024-02-14T04:14:26;5.88;;;3.95;;
14734;SDS011;7458;49.002;8.472;2024-02-14T04:16:53;4.10;;;3.28;;
14734;SDS011;7458;49.002;8.472;2024-02-14T04:19:19;41.03;;;7.05;;
14734;SDS011;7458;49.002;8.472;2024-02-14T04:21:45;4.28;;;3.50;;
14734;SDS011;7458;49.002;8.472;2024-02-14T04:24:12;4.68;;;3.00;;
14734;SDS011;7458;49.002;8.472;2024-02-14T04:26:38;10.63;;;4.00;;
14734;SDS011;7458;49.002;8.472;2024-02-14T04:29:04;6.20;;;3.33;;
14734;SDS011;7458;49.002;8.472;2024-02-14T04:31:30;8.45;;;3.17;;
14734;SDS011;7458;49.002;8.472;2024-02-14T04:33:56;5.88;;;2.70;;
14734;SDS011;7458;49.002;8.472;2024-02-14T04:36:23;4.45;;;3.58;;
14734;SDS011;7458;49.002;8.472;2024-02-14T04:38:49;5.60;;;3.50;;
14734;SDS011;7458;49.002;8.472;2024-02-14T04:41:16;3.90;;;3.17;;
14734;SDS011;7458;49.002;8.472;2024-02-14T04:43:43;5.38;;;3.55;;
14734;SDS011;7458;49.002;8.472;2024-02-14T04:46:09;4.63;;;2.75;;
14734;SDS011;7458;49.002;8.472;2024-02-14T04:48:35;4.80;;;3.67;;
14734;SDS011;7458;49.002;8.472;2024-02-14T04:51:04;5.60;;;3.45;;
14734;SDS011;7458;49.002;8.472;2024-02-14T04:53:33;4.22;;;3.35;;
14734;SDS011;7458;49.002;8.472;2024-02-14T04:55:59;5.40;;;3.60;;
14734;SDS011;7458;49.002;8.472;2024-02-14T04:58:25;8.18;;;3.97;;
14734;SDS011;7458;49.002;8.472;2024-02-14T05:00:52;4.70;;;3.40;;
14734;SDS011;7458;49.002;8.472;2024-02-14T05:03:19;4.80;;;3.30;;
14734;SDS011;7458;49.002;8.472;2024-02-14T05:05:46;5.13;;;2.72;;
14734;SDS011;7458;49.002;8.472;2024-02-14T05:08:12;6.10;;;2.72;;
14734;SDS011;7458;49.002;8.472;2024-02-14T05:10:38;5.35;;;3.97;;
14734;SDS011;7458;49.002;8.472;2024-02-14T05:13:04;4.22;;;3.45;;
14734;SDS011;7458;49.002;8.472;2024-02-14T05:15:31;6.68;;;3.78;;
14734;SDS011;7458;49.002;8.472;2024-02-14T05:17:57;6.70;;;3.50;;
14734;SDS011;7458;49.002;8.472;2024-02-14T05:20:23;6.00;;;4.65;;
14734;SDS011;7458;49.002;8.472;2024-02-14T05:22:49;4.65;;;3.78;;
14734;SDS011;7458;49.002;8.472;2024-02-14T05:25:15;9.55;;;4.38;;
14734;SDS011;7458;49.002;8.472;2024-02-14T05:27:41;7.30;;;3.28;;
14734;SDS011;7458;49.002;8.472;2024-02-14T05:30:07;4.78;;;3.20;;
14734;SDS011;7458;49.002;8.472;2024-02-14T05:32:34;4.45;;;3.47;;
14734;SDS011;7458;49.002;8.472;2024-02-14T05:35:00;5.05;;;2.88;;
14734;SDS011;7458;49.002;8.472;2024-02-14T05:37:30;5.30;;;3.67;;
14734;SDS011;7458;49.002;8.472;2024-02-14T05:39:57;7.50;;;4.97;;
14734;SDS011;7458;49.002;8.472;2024-02-14T05:42:22;7.03;;;4.35;;
14734;SDS011;7458;49.002;8.472;2024-02-14T05:44:49;5.00;;;3.47;;
14734;SDS011;7458;49.002;8.472;2024-02-14T05:47:17;5.82;;;3.85;;
14734;SDS011;7458;49.002;8.472;2024-02-14T05:49:43;6.97;;;3.97;;
14734;SDS011;7458;49.002;8.472;2024-02-14T05:52:09;4.90;;;4.28;;
14734;SDS011;7458;49.002;8.472;2024-02-14T05:54:35;6.30;;;3.83;;
14734;SDS011;7458;49.002;8.472;2024-02-14T05:57:03;6.13;;;3.88;;
14734;SDS011;7458;49.002;8.472;2024-02-14T05:59:29;7.40;;;4.47;;
14734;SDS011;7458;49.002;8.472;2024-02-14T06:01:56;6.28;;;3.95;;
14734;SDS011;7458;49.002;8.472;2024-02-14T06:04:22;7.90;;;3.20;;
14734;SDS011;7458;49.002;8.472;2024-02-14T06:06:48;9.90;;;4.45;;
14734;SDS011;7458;49.002;8.472;2024-02-14T06:09:14;7.40;;;5.60;;
14734;SDS011;7458;49.002;8.472;2024-02-14T06:11:40;6.90;;;4.57;;
14734;SDS011;7458;49.002;8.472;2024-02-14T06:14:08;13.63;;;12.07;;
14734;SDS011;7458;49.002;8.472;2024-02-14T06:16:34;5.47;;;4.97;;
14734;SDS011;7458;49.002;8.472;2024-02-14T06:19:01;4.90;;;3.42;;
14734;SDS011;7458;49.002;8.472;2024-02-14T06:21:29;11.50;;;4.72;;
14734;SDS011;7458;49.002;8.472;2024-02-14T06:23:55;5.13;;;3.92;;
14734;SDS011;7458;49.002;8.472;2024-02-14T06:26:23;15.13;;;11.45;;
14734;SDS011;7458;49.002;8.472;2024-02-14T06:28:49;7.60;;;5.47;;
14734;SDS011;7458;49.002;8.472;2024-02-14T06:31:19;7.68;;;5.65;;
14734;SDS011;7458;49.002;8.472;2024-02-14T06:33:47;6.63;;;3.83;;
14734;SDS011;7458;49.002;8.472;2024-02-14T06:36:13;5.55;;;3.60;;
14734;SDS011;7458;49.002;8.472;2024-02-14T06:38:39;5.35;;;4.40;;
14734;SDS011;7458;49.002;8.472;2024-02-14T06:41:05;5.53;;;3.38;;
14734;SDS011;7458;49.002;8.472;2024-02-14T06:43:32;7.03;;;4.65;;
14734;SDS011;7458;49.002;8.472;2024-02-14T06:45:57;5.18;;;4.65;;
14734;SDS011;7458;49.002;8.472;2024-02-14T06:48:23;5.00;;;3.85;;
14734;SDS011;7458;49.002;8.472;2024-02-14T06:50:50;4.70;;;3.08;;
14734;SDS011;7458;49.002;8.472;2024-02-14T06:53:17;4.50;;;3.35;;
14734;SDS011;7458;49.002;8.472;2024-02-14T06:55:43;4.10;;;2.72;;
14734;SDS011;7458;49.002;8.472;2024-02-14T06:58:09;4.72;;;3.03;;
14734;SDS011;7458;49.002;8.472;2024-02-14T07:00:35;2.90;;;2.15;;
14734;SDS011;7458;49.002;8.472;2024-02-14T07:03:02;3.05;;;2.38;;
14734;SDS011;7458;49.002;8.472;2024-02-14T07:05:28;3.92;;;2.53;;
14734;SDS011;7458;49.002;8.472;2024-02-14T07:07:55;5.25;;;2.88;;
14734;SDS011;7458;49.002;8.472;2024-02-14T07:10:21;10.68;;;2.00;;
14734;SDS011;7458;49.002;8.472;2024-02-14T07:12:47;3.58;;;2.35;;
14734;SDS011;7458;49.002;8.472;2024-02-14T07:15:13;4.72;;;3.13;;
14734;SDS011;7458;49.002;8.472;2024-02-14T07:17:40;5.28;;;2.33;;
14734;SDS011;7458;49.002;8.472;2024-02-14T07:20:06;7.03;;;3.90;;
14734;SDS011;7458;49.002;8.472;2024-02-14T07:22:35;6.03;;;2.72;;
14734;SDS011;7458;49.002;8.472;2024-02-14T07:25:01;3.58;;;2.25;;
14734;SDS011;7458;49.002;8.472;2024-02-14T07:27:30;3.78;;;2.53;;
14734;SDS011;7458;49.002;8.472;2024-02-14T07:29:56;9.40;;;3.75;;
14734;SDS011;7458;49.002;8.472;2024-02-14T07:32:21;6.18;;;3.65;;
14734;SDS011;7458;49.002;8.472;2024-02-14T07:34:48;6.28;;;3.55;;
14734;SDS011;7458;49.002;8.472;2024-02-14T07:37:14;6.82;;;2.75;;
14734;SDS011;7458;49.002;8.472;2024-02-14T07:39:43;9.05;;;3.22;;
14734;SDS011;7458;49.002;8.472;2024-02-14T07:42:09;5.60;;;3.35;;
14734;SDS011;7458;49.002;8.472;2024-02-14T07:44:35;10.25;;;3.08;;
14734;SDS011;7458;49.002;8.472;2024-02-14T07:47:01;4.97;;;2.38;;
14734;SDS011;7458;49.002;8.472;2024-02-14T07:49:28;9.20;;;2.85;;
14734;SDS011;7458;49.002;8.472;2024-02-14T07:51:54;5.50;;;2.83;;
14734;SDS011;7458;49.002;8.472;2024-02-14T07:54:20;6.75;;;2.90;;
14734;SDS011;7458;49.002;8.472;2024-02-14T07:56:47;5.93;;;3.38;;
14734;SDS011;7458;49.002;8.472;2024-02-14T07:59:13;6.10;;;2.80;;
14734;SDS011;7458;49.002;8.472;2024-02-14T08:01:38;5.78;;;3.03;;
14734;SDS011;7458;49.002;8.472;2024-02-14T08:04:04;3.42;;;2.72;;
14734;SDS011;7458;49.002;8.472;2024-02-14T08:06:30;3.70;;;2.47;;
14734;SDS011;7458;49.002;8.472;2024-02-14T08:08:56;4.53;;;2.90;;
14734;SDS011;7458;49.002;8.472;2024-02-14T08:11:27;7.28;;;2.08;;
14734;SDS011;7458;49.002;8.472;2024-02-14T08:13:54;11.00;;;3.15;;
14734;SDS011;7458;49.002;8.472;2024-02-14T08:16:20;3.67;;;2.88;;
14734;SDS011;7458;49.002;8.472;2024-02-14T08:18:45;8.02;;;3.70;;
14734;SDS011;7458;49.002;8.472;2024-02-14T08:21:13;3.28;;;2.33;;
14734;SDS011;7458;49.002;8.472;2024-02-14T08:23:39;4.85;;;2.42;;
14734;SDS011;7458;49.002;8.472;2024-02-14T08:26:06;4.47;;;2.90;;
14734;SDS011;7458;49.002;8.472;2024-02-14T08:28:36;4.20;;;2.80;;
14734;SDS011;7458;49.002;8.472;2024-02-14T08:31:03;5.47;;;2.30;;
14734;SDS011;7458;49.002;8.472;2024-02-14T08:33:34;7.78;;;3.28;;
14734;SDS011;7458;49.002;8.472;2024-02-14T08:36:01;6.93;;;2.88;;
14734;SDS011;7458;49.002;8.472;2024-02-14T08:38:31;6.93;;;2.70;;
14734;SDS011;7458;49.002;8.472;2024-02-14T08:40:58;4.80;;;2.47;;
14734;SDS011;7458;49.002;8.472;2024-02-14T08:43:24;4.78;;;3.38;;
14734;SDS011;7458;49.002;8.472;2024-02-14T08:48:17;5.10;;;3.47;;
14734;SDS011;7458;49.002;8.472;2024-02-14T08:50:44;6.13;;;3.85;;
14734;SDS011;7458;49.002;8.472;2024-02-14T08:53:11;8.00;;;3.40;;
14734;SDS011;7458;49.002;8.472;2024-02-14T08:55:39;4.13;;;2.75;;
14734;SDS011;7458;49.002;8.472;2024-02-14T08:58:06;8.25;;;3.58;;
14734;SDS011;7458;49.002;8.472;2024-02-14T09:00:34;5.05;;;3.00;;
14734;SDS011;7458;49.002;8.472;2024-02-14T09:03:01;6.53;;;3.03;;
14734;SDS011;7458;49.002;8.472;2024-02-14T09:05:28;3.72;;;2.90;;
14734;SDS011;7458;49.002;8.472;2024-02-14T09:07:55;4.20;;;2.65;;
14734;SDS011;7458;49.002;8.472;2024-02-14T09:10:22;3.67;;;2.20;;
14734;SDS011;7458;49.002;8.472;2024-02-14T09:12:48;4.40;;;2.83;;
14734;SDS011;7458;49.002;8.472;2024-02-14T09:15:14;5.00;;;2.38;;
14734;SDS011;7458;49.002;8.472;2024-02-14T09:17:41;3.63;;;2.47;;
14734;SDS011;7458;49.002;8.472;2024-02-14T09:20:08;6.07;;;3.25;;
14734;SDS011;7458;49.002;8.472;2024-02-14T09:22:35;5.15;;;2.35;;
14734;SDS011;7458;49.002;8.472;2024-02-14T09:25:01;7.63;;;4.47;;
14734;SDS011;7458;49.002;8.472;2024-02-14T09:27:31;4.68;;;2.83;;
14734;SDS011;7458;49.002;8.472;2024-02-14T09:29:58;4.18;;;2.30;;
14734;SDS011;7458;49.002;8.472;2024-02-14T09:32:24;8.00;;;4.35;;
14734;SDS011;7458;49.002;8.472;2024-02-14T09:34:50;6.22;;;2.10;;
14734;SDS011;7458;49.002;8.472;2024-02-14T09:37:16;2.55;;;2.33;;
14734;SDS011;7458;49.002;8.472;2024-02-14T09:39:43;4.93;;;3.25;;
14734;SDS011;7458;49.002;8.472;2024-02-14T09:42:11;4.65;;;2.85;;
14734;SDS011;7458;49.002;8.472;2024-02-14T09:44:40;3.25;;;2.30;;
14734;SDS011;7458;49.002;8.472;2024-02-14T09:47:08;3.72;;;2.13;;
14734;SDS011;7458;49.002;8.472;2024-02-14T09:49:35;4.07;;;2.60;;
14734;SDS011;7458;49.002;8.472;2024-02-14T09:52:02;5.22;;;1.90;;
14734;SDS011;7458;49.002;8.472;2024-02-14T09:54:28;11.93;;;2.95;;
14734;SDS011;7458;49.002;8.472;2024-02-14T09:56:57;4.10;;;2.92;;
14734;SDS011;7458;49.002;8.472;2024-02-14T09:59:24;3.10;;;2.13;;
14734;SDS011;7458;49.002;8.472;2024-02-14T10:01:50;6.53;;;1.80;;
14734;SDS011;7458;49.002;8.472;2024-02-14T10:04:17;2.83;;;2.28;;
14734;SDS011;7458;49.002;8.472;2024-02-14T10:06:44;4.72;;;2.65;;
14734;SDS011;7458;49.002;8.472;2024-02-14T10:09:10;5.53;;;2.33;;
14734;SDS011;7458;49.002;8.472;2024-02-14T10:11:37;5.03;;;2.72;;
14734;SDS011;7458;49.002;8.472;2024-02-14T10:14:06;6.38;;;3.25;;
14734;SDS011;7458;49.002;8.472;2024-02-14T10:16:34;5.78;;;3.40;;
14734;SDS011;7458;49.002;8.472;2024-02-14T10:19:01;10.02;;;2.38;;
14734;SDS011;7458;49.002;8.472;2024-02-14T10:21:29;4.47;;;2.95;;
14734;SDS011;7458;49.002;8.472;2024-02-14T10:24:01;6.60;;;2.80;;
14734;SDS011;7458;49.002;8.472;2024-02-14T10:26:28;4.15;;;3.47;;
14734;SDS011;7458;49.002;8.472;2024-02-14T10:28:56;6.65;;;2.47;;
14734;SDS011;7458;49.002;8.472;2024-02-14T10:31:25;3.22;;;2.03;;
14734;SDS011;7458;49.002;8.472;2024-02-14T10:33:52;12.95;;;2.33;;
14734;SDS011;7458;49.002;8.472;2024-02-14T10:36:21;5.68;;;2.67;;
14734;SDS011;7458;49.002;8.472;2024-02-14T10:38:47;3.95;;;2.42;;
14734;SDS011;7458;49.002;8.472;2024-02-14T10:41:19;4.82;;;2.78;;
14734;SDS011;7458;49.002;8.472;2024-02-14T10:43:44;3.83;;;2.47;;
14734;SDS011;7458;49.002;8.472;2024-02-14T10:46:15;3.05;;;2.22;;
14734;SDS011;7458;49.002;8.472;2024-02-14T10:48:47;2.22;;;1.83;;
14734;SDS011;7458;49.002;8.472;2024-02-14T10:51:23;13.10;;;2.83;;
14734;SDS011;7458;49.002;8.472;2024-02-14T10:54:00;5.20;;;2.80;;
14734;SDS011;7458;49.002;8.472;2024-02-14T10:56:40;3.15;;;2.42;;
14734;SDS011;7458;49.002;8.472;2024-02-14T10:59:09;4.18;;;2.22;;
14734;SDS011;7458;49.002;8.472;2024-02-14T11:01:41;5.55;;;2.50;;
14734;SDS011;7458;49.002;8.472;2024-02-14T11:04:08;9.90;;;3.63;;
14734;SDS011;7458;49.002;8.472;2024-02-14T11:06:47;3.88;;;2.45;;
14734;SDS011;7458;49.002;8.472;2024-02-14T11:09:14;4.78;;;2.30;;
14734;SDS011;7458;49.002;8.472;2024-02-14T11:11:43;3.30;;;1.88;;
14734;SDS011;7458;49.002;8.472;2024-02-14T11:14:13;4.68;;;2.10;;
14734;SDS011;7458;49.002;8.472;2024-02-14T11:16:48;4.38;;;2.45;;
14734;SDS011;7458;49.002;8.472;2024-02-14T11:19:17;3.38;;;2.35;;
14734;SDS011;7458;49.002;8.472;2024-02-14T11:21:45;4.60;;;2.80;;
14734;SDS011;7458;49.002;8.472;2024-02-14T11:24:13;3.50;;;2.22;;
14734;SDS011;7458;49.002;8.472;2024-02-14T11:26:47;3.85;;;2.53;;
14734;SDS011;7458;49.002;8.472;2024-02-14T11:29:16;4.82;;;2.00;;
14734;SDS011;7458;49.002;8.472;2024-02-14T11:31:43;7.30;;;2.60;;
14734;SDS011;7458;49.002;8.472;2024-02-14T11:34:13;13.70;;;3.60;;
14734;SDS011;7458;49.002;8.472;2024-02-14T11:36:43;4.85;;;2.20;;
14734;SDS011;7458;49.002;8.472;2024-02-14T11:39:10;4.93;;;2.05;;
14734;SDS011;7458;49.002;8.472;2024-02-14T11:41:39;7.45;;;2.47;;
14734;SDS011;7458;49.002;8.472;2024-02-14T11:44:07;5.97;;;2.92;;
14734;SDS011;7458;49.002;8.472;2024-02-14T11:46:35;5.45;;;3.30;;
14734;SDS011;7458;49.002;8.472;2024-02-14T11:49:02;5.70;;;2.17;;
14734;SDS011;7458;49.002;8.472;2024-02-14T11:51:30;2.90;;;1.88;;
14734;SDS011;7458;49.002;8.472;2024-02-14T11:53:59;3.30;;;1.98;;
14734;SDS011;7458;49.002;8.472;2024-02-14T11:56:32;2.70;;;1.80;;
14734;SDS011;7458;49.002;8.472;2024-02-14T11:59:00;3.45;;;2.05;;
14734;SDS011;7458;49.002;8.472;2024-02-14T12:01:30;2.33;;;1.55;;
14734;SDS011;7458;49.002;8.472;2024-02-14T12:03:59;6.88;;;2.20;;
14734;SDS011;7458;49.002;8.472;2024-02-14T12:06:30;2.65;;;1.90;;
14734;SDS011;7458;49.002;8.472;2024-02-14T12:09:00;3.95;;;2.08;;
14734;SDS011;7458;49.002;8.472;2024-02-14T12:11:30;4.22;;;1.92;;
14734;SDS011;7458;49.002;8.472;2024-02-14T12:14:02;2.90;;;2.00;;
14734;SDS011;7458;49.002;8.472;2024-02-14T12:16:30;2.97;;;2.20;;
14734;SDS011;7458;49.002;8.472;2024-02-14T12:19:04;2.72;;;2.00;;
14734;SDS011;7458;49.002;8.472;2024-02-14T12:21:35;4.88;;;2.05;;
14734;SDS011;7458;49.002;8.472;2024-02-14T12:24:03;2.63;;;1.90;;
14734;SDS011;7458;49.002;8.472;2024-02-14T12:26:37;2.50;;;1.70;;
14734;SDS011;7458;49.002;8.472;2024-02-14T12:29:05;3.13;;;2.13;;
14734;SDS011;7458;49.002;8.472;2024-02-14T12:31:32;2.35;;;1.75;;
14734;SDS011;7458;49.002;8.472;2024-02-14T12:33:59;2.78;;;1.80;;
14734;SDS011;7458;49.002;8.472;2024-02-14T12:36:31;3.00;;;1.70;;
14734;SDS011;7458;49.002;8.472;2024-02-14T12:38:58;4.10;;;2.05;;
14734;SDS011;7458;49.002;8.472;2024-02-14T12:41:27;3.50;;;2.35;;
14734;SDS011;7458;49.002;8.472;2024-02-14T12:43:57;3.15;;;1.67;;
14734;SDS011;7458;49.002;8.472;2024-02-14T12:46:23;3.55;;;2.22;;
14734;SDS011;7458;49.002;8.472;2024-02-14T12:48:49;7.03;;;1.80;;
14734;SDS011;7458;49.002;8.472;2024-02-14T12:51:15;3.60;;;1.23;;
14734;SDS011;7458;49.002;8.472;2024-02-14T12:53:43;9.35;;;1.85;;
14734;SDS011;7458;49.002;8.472;2024-02-14T12:56:08;2.67;;;1.30;;
14734;SDS011;7458;49.002;8.472;2024-02-14T12:58:35;4.75;;;2.30;;
14734;SDS011;7458;49.002;8.472;2024-02-14T13:01:01;2.22;;;1.98;;
14734;SDS011;7458;49.002;8.472;2024-02-14T13:03:30;3.03;;;1.92;;
14734;SDS011;7458;49.002;8.472;2024-02-14T13:06:00;2.95;;;1.85;;
14734;SDS011;7458;49.002;8.472;2024-02-14T13:08:26;2.13;;;1.65;;
14734;SDS011;7458;49.002;8.472;2024-02-14T13:10:53;3.95;;;1.92;;
14734;SDS011;7458;49.002;8.472;2024-02-14T13:13:19;2.15;;;1.63;;
14734;SDS011;7458;49.002;8.472;2024-02-14T13:15:45;3.20;;;2.25;;
14734;SDS011;7458;49.002;8.472;2024-02-14T13:18:11;5.45;;;2.03;;
14734;SDS011;7458;49.002;8.472;2024-02-14T13:20:37;4.30;;;1.60;;
14734;SDS011;7458;49.002;8.472;2024-02-14T13:23:04;2.15;;;1.42;;
14734;SDS011;7458;49.002;8.472;2024-02-14T13:25:33;2.58;;;1.58;;
14734;SDS011;7458;49.002;8.472;2024-02-14T13:27:59;7.95;;;1.60;;
14734;SDS011;7458;49.002;8.472;2024-02-14T13:30:26;2.45;;;1.48;;
14734;SDS011;7458;49.002;8.472;2024-02-14T13:32:52;2.47;;;1.40;;
14734;SDS011;7458;49.002;8.472;2024-02-14T13:35:18;3.15;;;1.55;;
14734;SDS011;7458;49.002;8.472;2024-02-14T13:37:44;3.20;;;1.83;;
14734;SDS011;7458;49.002;8.472;2024-02-14T13:40:10;3.28;;;2.03;;
14734;SDS011;7458;49.002;8.472;2024-02-14T13:42:37;2.80;;;2.10;;
14734;SDS011;7458;49.002;8.472;2024-02-14T13:45:04;1.58;;;1.35;;
14734;SDS011;7458;49.002;8.472;2024-02-14T13:47:41;2.70;;;2.03;;
14734;SDS011;7458;49.002;8.472;2024-02-14T13:50:09;4.03;;;2.20;;
14734;SDS011;7458;49.002;8.472;2024-02-14T13:52:35;3.70;;;2.13;;
14734;SDS011;7458;49.002;8.472;2024-02-14T13:55:02;2.15;;;1.48;;
14734;SDS011;7458;49.002;8.472;2024-02-14T13:57:30;3.03;;;1.83;;
14734;SDS011;7458;49.002;8.472;2024-02-14T14:00:01;4.03;;;2.53;;
14734;SDS011;7458;49.002;8.472;2024-02-14T14:02:27;3.83;;;1.98;;
14734;SDS011;7458;49.002;8.472;2024-02-14T14:04:53;5.45;;;2.17;;
14734;SDS011;7458;49.002;8.472;2024-02-14T14:07:20;4.25;;;2.17;;
14734;SDS011;7458;49.002;8.472;2024-02-14T14:09:48;4.00;;;2.45;;
14734;SDS011;7458;49.002;8.472;2024-02-14T14:12:14;2.67;;;1.98;;
14734;SDS011;7458;49.002;8.472;2024-02-14T14:14:40;5.93;;;1.77;;
14734;SDS011;7458;49.002;8.472;2024-02-14T14:17:06;2.35;;;1.35;;
14734;SDS011;7458;49.002;8.472;2024-02-14T14:19:32;2.95;;;1.65;;
14734;SDS011;7458;49.002;8.472;2024-02-14T14:21:58;6.25;;;2.13;;
14734;SDS011;7458;49.002;8.472;2024-02-14T14:24:25;3.03;;;2.00;;
14734;SDS011;7458;49.002;8.472;2024-02-14T14:26:51;4.72;;;2.90;;
14734;SDS011;7458;49.002;8.472;2024-02-14T14:29:17;4.78;;;3.47;;
14734;SDS011;7458;49.002;8.472;2024-02-14T14:31:43;3.13;;;2.08;;
14734;SDS011;7458;49.002;8.472;2024-02-14T14:34:09;2.40;;;1.70;;
14734;SDS011;7458;49.002;8.472;2024-02-14T14:36:35;3.85;;;2.17;;
14734;SDS011;7458;49.002;8.472;2024-02-14T14:39:02;5.10;;;1.70;;
14734;SDS011;7458;49.002;8.472;2024-02-14T14:41:28;2.70;;;1.48;;
14734;SDS011;7458;49.002;8.472;2024-02-14T14:43:54;3.38;;;2.17;;
14734;SDS011;7458;49.002;8.472;2024-02-14T14:46:20;1.88;;;1.63;;
14734;SDS011;7458;49.002;8.472;2024-02-14T14:48:46;3.20;;;2.17;;
14734;SDS011;7458;49.002;8.472;2024-02-14T14:51:12;2.45;;;1.60;;
14734;SDS011;7458;49.002;8.472;2024-02-14T14:53:38;4.63;;;2.10;;
14734;SDS011;7458;49.002;8.472;2024-02-14T14:56:05;3.08;;;1.65;;
14734;SDS011;7458;49.002;8.472;2024-02-14T14:58:31;7.10;;;3.42;;
14734;SDS011;7458;49.002;8.472;2024-02-14T15:01:00;6.55;;;3.33;;
14734;SDS011;7458;49.002;8.472;2024-02-14T15:03:28;3.55;;;2.25;;